CLT TRACON Summary / KCLT TAF
CLT TRACON Summary:
High pressure will continue to dominate the region with VFR conditions under mostly clear skies this morning. Surface winds will be north to northeast at 5-7kts. Flight Hazards in the TRACON airspace: None expected.

Updated: 8/02/2015 6:00 AM
CLT Terminal Aerodrome Forecast:

FTUS42 KGSP 021122
TAFCLT
TAF
KCLT 021122Z 0212/0312 02006KT P6SM FEW060
     FM030200 07004KT P6SM FEW060
     FM030700 15003KT P6SM FEW060=
CLT TRACON Area Remark:
NONE.
Convective Gate Forecast / Collaborative Convective Forecast Product / Vertical Wind Profile
Convective Gate Forecast
SIGMETS/ Southeast Radar & Satellite Loops (click on image to enlarge)

Southeast Radar Loop

 



USA.gov is the U.S. government's official web portal to all federal, state and local government web resources and services.